Time;durP1;ratioP1;P1;durP2;ratioP2;P2;SDS_P1;SDS_P2;PMS_P1;PMS_P2;Temp;Humidity;BMP_temperature;BMP_pressure;BME280_temperature;BME280_humidity;BME280_pressure;Samples;Min_cycle;Max_cycle;Signal;HPM_P1;HPM_P2
2023/07/01 00:00:53;;;;;;;;;24.67;15.00;;;;;19.90;78.89;100927.94;5051845;28;45452;-79
2023/07/01 00:03:18;;;;;;;;;3.00;3.00;;;;;19.84;79.13;100922.25;5022795;28;46431;-79
2023/07/01 00:05:44;;;;;;;;;3.00;3.00;;;;;19.77;81.59;100916.53;5047134;28;46353;-79
2023/07/01 00:08:16;;;;;;;;;0.67;0.67;;;;;19.94;79.95;100947.34;5039256;28;45317;-79
2023/07/01 00:10:44;;;;;;;;;2.33;0.00;;;;;20.21;82.23;100994.22;5029697;28;45484;-79
2023/07/01 00:13:09;;;;;;;;;5.67;5.67;;;;;19.75;81.18;100916.69;5015745;28;45441;-79
2023/07/01 00:15:35;;;;;;;;;3.33;3.33;;;;;20.25;82.04;101002.88;5032763;28;46224;-79
2023/07/01 00:18:00;;;;;;;;;2.00;2.00;;;;;20.18;83.53;100978.38;5033546;28;45586;-79
2023/07/01 00:20:26;;;;;;;;;3.00;2.00;;;;;20.01;84.70;100960.13;5022301;28;45644;-79
2023/07/01 00:22:53;;;;;;;;;7.33;6.33;;;;;20.11;83.92;100982.53;5040024;28;45227;-79
2023/07/01 00:25:19;;;;;;;;;3.33;2.67;;;;;19.96;86.28;100940.03;5028606;28;46394;-79
2023/07/01 00:27:44;;;;;;;;;1.00;0.00;;;;;20.11;84.21;100973.63;5020969;28;46927;-79
2023/07/01 00:30:10;;;;;;;;;9.33;6.33;;;;;20.04;83.54;100962.56;5028619;28;45381;-79
2023/07/01 00:32:36;;;;;;;;;5.33;4.33;;;;;19.71;83.86;100911.69;5037834;28;45693;-79
2023/07/01 00:35:01;;;;;;;;;7.67;7.00;;;;;19.72;82.81;100913.41;5051872;28;45463;-80
2023/07/01 00:37:27;;;;;;;;;10.00;10.00;;;;;20.04;84.00;100970.59;5041386;28;45483;-77
2023/07/01 00:39:53;;;;;;;;;1.33;1.33;;;;;19.88;84.62;100951.41;5049147;28;45449;-81
2023/07/01 00:42:19;;;;;;;;;0.00;0.00;;;;;19.29;85.57;100865.09;5040258;28;45346;-79
2023/07/01 00:44:44;;;;;;;;;2.00;1.67;;;;;19.89;88.04;100976.41;5049554;28;47323;-79
2023/07/01 00:47:10;;;;;;;;;0.67;0.67;;;;;19.30;87.92;100861.44;5040091;28;45330;-80
2023/07/01 00:49:37;;;;;;;;;6.00;4.33;;;;;19.46;88.33;100904.81;5018141;28;45373;-81
2023/07/01 00:52:09;;;;;;;;;0.67;0.67;;;;;19.67;88.56;100947.78;5039219;28;45467;-79
2023/07/01 00:54:36;;;;;;;;;0.00;0.00;;;;;19.73;91.93;100952.69;5039291;28;45508;-79
2023/07/01 00:57:04;;;;;;;;;0.33;0.33;;;;;19.57;89.96;100925.38;5012692;28;45761;-79
2023/07/01 00:59:32;;;;;;;;;0.00;0.00;;;;;19.37;92.06;100900.16;5044677;28;45491;-80
2023/07/01 01:02:03;;;;;;;;;0.00;0.00;;;;;19.44;93.62;100905.91;5040109;28;45448;-80
2023/07/01 01:04:38;;;;;;;;;0.00;0.00;;;;;19.54;93.69;100925.63;5042273;28;45415;-80
2023/07/01 01:07:10;;;;;;;;;0.00;0.00;;;;;19.67;95.24;100943.28;5051020;28;45278;-80
2023/07/01 01:09:47;;;;;;;;;2.33;1.33;;;;;19.50;96.60;100922.34;5042942;28;45406;-79
2023/07/01 01:12:14;;;;;;;;;0.00;0.00;;;;;19.57;96.84;100938.81;5041546;28;45271;-79
2023/07/01 01:14:41;;;;;;;;;0.00;0.00;;;;;19.49;97.38;100922.50;5018554;28;47481;-79
2023/07/01 01:17:13;;;;;;;;;0.67;0.67;;;;;19.07;97.98;100867.84;5020582;28;45488;-78
2023/07/01 01:19:47;;;;;;;;;1.67;1.67;;;;;19.32;100.00;100913.13;5033542;28;45472;-78
2023/07/01 01:22:46;;;;;;;;;0.00;0.00;;;;;19.39;98.92;100927.72;5055941;28;45423;-78
2023/07/01 01:25:24;;;;;;;;;2.00;2.00;;;;;19.34;100.00;100921.06;5009145;28;45881;-78
2023/07/01 01:27:52;;;;;;;;;2.67;2.67;;;;;19.21;100.00;100902.41;5047559;28;45503;-78
2023/07/01 01:30:19;;;;;;;;;0.00;0.00;;;;;19.27;100.00;100911.78;5019212;28;45479;-78
2023/07/01 01:32:46;;;;;;;;;7.67;6.67;;;;;18.99;100.00;100884.53;5033155;28;46215;-79
2023/07/01 01:35:12;;;;;;;;;0.33;0.33;;;;;19.17;100.00;100904.47;5049348;28;46065;-80
2023/07/01 01:37:46;;;;;;;;;0.33;0.33;;;;;19.16;100.00;100907.28;5033366;28;45386;-79
2023/07/01 01:40:18;;;;;;;;;0.00;0.00;;;;;19.07;100.00;100906.22;5039415;28;45476;-78
2023/07/01 01:42:45;;;;;;;;;1.00;1.00;;;;;19.02;100.00;100896.81;5039594;28;45267;-79
2023/07/01 01:45:14;;;;;;;;;0.00;0.00;;;;;18.66;100.00;100847.03;5040104;28;46481;-79
2023/07/01 01:47:40;;;;;;;;;2.00;2.00;;;;;18.78;100.00;100848.75;5046069;28;45281;-79
2023/07/01 01:50:09;;;;;;;;;0.00;0.00;;;;;19.00;100.00;100875.53;5039370;28;45397;-79
2023/07/01 01:52:36;;;;;;;;;0.00;0.00;;;;;19.15;100.00;100892.19;5036216;28;45498;-78
2023/07/01 01:55:02;;;;;;;;;0.00;0.00;;;;;19.15;100.00;100886.81;5035004;28;46202;-79
2023/07/01 01:57:28;;;;;;;;;1.00;1.00;;;;;19.17;100.00;100884.88;5032858;28;45574;-79
2023/07/01 01:59:54;;;;;;;;;0.00;0.00;;;;;19.08;100.00;100867.69;5026277;28;45345;-79
2023/07/01 02:02:20;;;;;;;;;0.33;0.33;;;;;18.89;100.00;100834.47;5029139;28;45798;-79
2023/07/01 02:04:45;;;;;;;;;0.33;0.33;;;;;19.09;100.00;100873.91;5038121;28;45824;-80
2023/07/01 02:07:11;;;;;;;;;2.00;0.67;;;;;19.10;100.00;100867.59;5036426;28;45423;-79
2023/07/01 02:09:36;;;;;;;;;0.33;0.33;;;;;19.06;100.00;100855.41;5019735;28;45988;-79
2023/07/01 02:12:02;;;;;;;;;1.67;1.67;;;;;19.11;100.00;100864.75;5028000;28;45426;-79
2023/07/01 02:14:29;;;;;;;;;0.00;0.00;;;;;19.09;100.00;100864.03;5036656;28;46676;-80
2023/07/01 02:16:55;;;;;;;;;4.33;4.33;;;;;19.03;100.00;100851.16;5042470;28;45446;-79
2023/07/01 02:19:20;;;;;;;;;5.67;5.67;;;;;18.81;100.00;100813.66;5004647;28;45448;-79
2023/07/01 02:21:46;;;;;;;;;1.00;1.00;;;;;18.79;100.00;100810.25;5038369;28;45511;-77
2023/07/01 02:24:11;;;;;;;;;2.00;2.00;;;;;19.07;100.00;100855.28;5043519;28;45343;-78
2023/07/01 02:26:36;;;;;;;;;0.67;0.67;;;;;19.03;100.00;100855.66;5019778;28;45437;-78
2023/07/01 02:29:02;;;;;;;;;0.00;0.00;;;;;19.09;100.00;100850.63;5023401;28;45516;-79
2023/07/01 02:31:28;;;;;;;;;1.00;1.00;;;;;18.97;100.00;100835.56;5046983;28;45438;-78
2023/07/01 02:33:59;;;;;;;;;0.00;0.00;;;;;18.99;100.00;100830.06;5044282;28;47255;-79
2023/07/01 02:36:25;;;;;;;;;0.67;0.67;;;;;19.10;100.00;100838.94;5045299;28;45689;-78
2023/07/01 02:38:50;;;;;;;;;2.00;2.00;;;;;19.08;100.00;100846.25;5039187;28;45376;-78
2023/07/01 02:41:15;;;;;;;;;0.00;0.00;;;;;19.09;100.00;100842.59;5040313;28;45679;-78
2023/07/01 02:43:41;;;;;;;;;0.33;0.33;;;;;18.85;100.00;100806.25;5036567;28;45467;-78
2023/07/01 02:46:06;;;;;;;;;0.33;0.33;;;;;19.09;100.00;100837.22;5030528;28;45352;-78
2023/07/01 02:48:31;;;;;;;;;1.00;1.00;;;;;19.06;100.00;100823.22;5035329;28;45783;-78
2023/07/01 02:50:57;;;;;;;;;0.33;0.33;;;;;18.97;100.00;100810.59;5012689;28;45366;-77
2023/07/01 02:53:22;;;;;;;;;0.00;0.00;;;;;18.95;100.00;100801.81;5021573;28;50234;-78
2023/07/01 02:55:47;;;;;;;;;0.33;0.33;;;;;18.99;100.00;100809.47;5020299;28;47138;-78
2023/07/01 02:58:13;;;;;;;;;0.33;0.33;;;;;19.06;100.00;100826.75;5021772;28;45353;-78
2023/07/01 03:00:38;;;;;;;;;2.33;1.67;;;;;18.82;100.00;100801.94;5039119;28;45423;-78
2023/07/01 03:03:06;;;;;;;;;0.00;0.00;;;;;18.96;100.00;100822.28;5029183;28;54551;-78
2023/07/01 03:05:40;;;;;;;;;0.00;0.00;;;;;18.98;100.00;100818.47;5029879;28;45326;-78
2023/07/01 03:08:07;;;;;;;;;0.00;0.00;;;;;18.99;100.00;100820.19;5028836;28;45234;-78
2023/07/01 03:10:33;;;;;;;;;4.00;4.00;;;;;18.90;100.00;100814.75;5018760;28;45552;-78
2023/07/01 03:12:59;;;;;;;;;5.67;4.67;;;;;18.99;100.00;100814.84;5036647;28;46348;-78
2023/07/01 03:15:25;;;;;;;;;0.00;0.00;;;;;18.85;100.00;100799.03;5046921;28;45325;-78
2023/07/01 03:17:50;;;;;;;;;1.00;1.00;;;;;18.86;100.00;100784.66;5048102;28;45565;-78
2023/07/01 03:20:22;;;;;;;;;0.00;0.00;;;;;18.95;100.00;100807.16;5051127;28;45458;-77
2023/07/01 03:22:58;;;;;;;;;1.00;1.00;;;;;19.06;100.00;100807.13;5034602;28;46511;-79
2023/07/01 03:25:25;;;;;;;;;0.00;0.00;;;;;19.09;100.00;100807.75;5023449;28;45544;-78
2023/07/01 03:27:51;;;;;;;;;0.00;0.00;;;;;18.82;100.00;100767.13;5039879;28;45528;-79
2023/07/01 03:30:17;;;;;;;;;0.00;0.00;;;;;19.04;100.00;100793.84;5041217;28;45298;-79
2023/07/01 03:32:44;;;;;;;;;0.00;0.00;;;;;19.01;100.00;100801.31;5053782;28;46426;-79
2023/07/01 03:35:11;;;;;;;;;0.67;0.67;;;;;18.91;100.00;100784.28;5032893;28;45407;-79
2023/07/01 03:37:42;;;;;;;;;0.00;0.00;;;;;19.00;100.00;100802.28;5053867;28;45443;-79
2023/07/01 03:40:11;;;;;;;;;1.00;1.00;;;;;19.06;100.00;100805.31;5060660;28;45492;-78
2023/07/01 03:42:41;;;;;;;;;0.50;0.50;;;;;19.09;100.00;100801.53;5050546;28;46304;-79
2023/07/01 03:45:08;;;;;;;;;0.00;0.00;;;;;19.08;100.00;100798.00;5044314;28;45344;-79
2023/07/01 03:47:38;;;;;;;;;0.00;0.00;;;;;18.96;100.00;100776.72;5049311;28;45293;-78
2023/07/01 03:50:07;;;;;;;;;0.00;0.00;;;;;19.06;100.00;100796.41;5016508;28;45605;-78
2023/07/01 03:52:33;;;;;;;;;1.00;1.00;;;;;18.97;100.00;100770.38;5012990;28;46761;-78
2023/07/01 03:54:58;;;;;;;;;0.33;0.33;;;;;19.03;100.00;100783.28;5044444;28;45427;-78
2023/07/01 03:57:24;;;;;;;;;0.33;0.33;;;;;18.92;100.00;100761.84;5046160;28;45450;-78
2023/07/01 03:59:49;;;;;;;;;0.00;0.00;;;;;19.06;100.00;100783.00;5053416;28;49777;-78
2023/07/01 04:02:14;;;;;;;;;0.00;0.00;;;;;18.92;100.00;100749.31;5048332;28;45476;-78
2023/07/01 04:04:40;;;;;;;;;0.00;0.00;;;;;19.02;100.00;100771.69;5041643;28;45392;-79
2023/07/01 04:07:05;;;;;;;;;0.33;0.00;;;;;18.90;100.00;100751.28;5034534;28;45303;-78
2023/07/01 04:09:31;;;;;;;;;0.00;0.00;;;;;19.03;100.00;100775.22;5040463;28;45246;-78
2023/07/01 04:11:57;;;;;;;;;0.00;0.00;;;;;19.06;100.00;100778.50;5022618;28;48075;-78
2023/07/01 04:14:23;;;;;;;;;0.00;0.00;;;;;19.06;100.00;100778.50;5023882;28;45336;-77
2023/07/01 04:16:49;;;;;;;;;0.33;0.33;;;;;18.96;100.00;100764.16;5033147;28;45363;-79
2023/07/01 04:19:14;;;;;;;;;0.00;0.00;;;;;18.92;100.00;100769.88;5022128;28;45484;-78
2023/07/01 04:21:39;;;;;;;;;1.67;1.67;;;;;18.95;100.00;100765.13;5040238;28;45675;-78
2023/07/01 04:24:07;;;;;;;;;0.67;0.67;;;;;18.88;100.00;100757.75;5043428;28;45357;-78
2023/07/01 04:26:33;;;;;;;;;0.67;0.67;;;;;18.99;100.00;100769.25;5042033;28;45428;-79
2023/07/01 04:28:58;;;;;;;;;0.67;0.67;;;;;18.86;100.00;100755.19;5041390;28;45417;-78
2023/07/01 04:31:24;;;;;;;;;0.00;0.00;;;;;18.94;100.00;100771.50;5039556;28;45503;-78
2023/07/01 04:33:49;;;;;;;;;0.00;0.00;;;;;18.94;100.00;100757.22;5031971;28;45455;-78
2023/07/01 04:36:15;;;;;;;;;0.00;0.00;;;;;18.86;100.00;100754.31;5040169;28;45361;-77
2023/07/01 04:38:41;;;;;;;;;0.00;0.00;;;;;18.98;100.00;100770.22;5040676;28;45468;-77
2023/07/01 04:41:06;;;;;;;;;0.00;0.00;;;;;18.98;100.00;100767.56;5018242;28;47506;-78
2023/07/01 04:43:32;;;;;;;;;1.00;0.00;;;;;18.98;100.00;100759.50;5045845;28;45528;-78
2023/07/01 04:45:57;;;;;;;;;0.00;0.00;;;;;18.97;100.00;100751.63;5045677;28;45878;-77
2023/07/01 04:48:23;;;;;;;;;0.00;0.00;;;;;18.97;100.00;100751.63;5043939;28;45371;-77
2023/07/01 04:50:48;;;;;;;;;0.00;0.00;;;;;18.95;100.00;100743.69;5037751;28;45330;-79
2023/07/01 04:53:13;;;;;;;;;0.00;0.00;;;;;19.00;100.00;100746.84;5044988;28;45500;-78
2023/07/01 04:55:39;;;;;;;;;0.00;0.00;;;;;19.00;100.00;100741.50;5047437;28;45543;-78
2023/07/01 04:58:04;;;;;;;;;0.33;0.33;;;;;19.10;100.00;100752.31;5039468;28;45404;-78
2023/07/01 05:00:30;;;;;;;;;0.00;0.00;;;;;19.03;100.00;100735.03;5044620;28;45488;-79
2023/07/01 05:02:55;;;;;;;;;0.33;0.33;;;;;19.06;100.00;100740.97;5023479;28;45420;-78
2023/07/01 05:05:20;;;;;;;;;1.00;1.00;;;;;19.00;100.00;100733.44;5058732;28;45356;-78
2023/07/01 05:07:46;;;;;;;;;0.00;0.00;;;;;19.05;100.00;100739.25;5056332;28;45453;-78
2023/07/01 05:10:11;;;;;;;;;0.00;0.00;;;;;19.11;100.00;100753.97;5031912;28;47708;-78
2023/07/01 05:12:37;;;;;;;;;0.00;0.00;;;;;19.04;100.00;100732.19;5039633;28;45306;-78
2023/07/01 05:15:02;;;;;;;;;0.00;0.00;;;;;19.09;100.00;100734.50;5041111;28;45423;-78
2023/07/01 05:17:28;;;;;;;;;0.00;0.00;;;;;19.09;100.00;100734.50;5040681;28;45420;-79
2023/07/01 05:19:53;;;;;;;;;1.00;0.00;;;;;19.14;100.00;100740.34;5034066;28;45569;-79
2023/07/01 05:22:18;;;;;;;;;0.00;0.00;;;;;19.19;100.00;100748.84;5021835;28;51662;-78
2023/07/01 05:24:44;;;;;;;;;0.00;0.00;;;;;19.18;100.00;100731.91;5025773;28;45423;-79
2023/07/01 05:27:09;;;;;;;;;0.33;0.00;;;;;19.06;100.00;100719.53;5029281;28;45393;-78
2023/07/01 05:29:40;;;;;;;;;0.33;0.00;;;;;19.24;100.00;100744.78;5019620;28;47311;-79
2023/07/01 05:32:07;;;;;;;;;0.00;0.00;;;;;19.06;100.00;100719.53;5038479;28;45463;-78
2023/07/01 05:34:32;;;;;;;;;0.00;0.00;;;;;18.96;100.00;100699.84;5028371;28;45309;-78
2023/07/01 05:36:58;;;;;;;;;0.00;0.00;;;;;19.19;100.00;100724.72;5037283;28;45479;-79
2023/07/01 05:39:23;;;;;;;;;0.00;0.00;;;;;19.21;100.00;100722.75;5054956;28;45455;-78
2023/07/01 05:41:49;;;;;;;;;0.00;0.00;;;;;19.27;100.00;100732.13;5053571;28;45403;-79
2023/07/01 05:44:14;;;;;;;;;1.33;0.00;;;;;19.32;100.00;100749.50;5038641;28;45366;-79
2023/07/01 05:46:40;;;;;;;;;0.00;0.00;;;;;19.22;100.00;100722.63;5038161;28;45694;-79
2023/07/01 05:49:06;;;;;;;;;0.00;0.00;;;;;19.35;100.00;100734.97;5045718;28;45838;-79
2023/07/01 05:51:32;;;;;;;;;0.00;0.00;;;;;19.41;100.00;100740.72;5019151;28;45426;-80
2023/07/01 05:53:58;;;;;;;;;0.00;0.00;;;;;19.23;100.00;100718.13;5025093;28;45408;-79
2023/07/01 05:56:23;;;;;;;;;0.00;0.00;;;;;19.15;100.00;100701.81;5029551;28;45646;-79
2023/07/01 05:58:48;;;;;;;;;0.00;0.00;;;;;19.29;100.00;100714.91;5053024;28;47232;-79
2023/07/01 06:01:14;;;;;;;;;0.00;0.00;;;;;19.54;100.00;100740.50;5040423;28;45424;-80
2023/07/01 06:03:39;;;;;;;;;0.00;0.00;;;;;19.47;100.00;100724.09;5057583;28;45295;-78
2023/07/01 06:06:04;;;;;;;;;0.00;0.00;;;;;19.37;100.00;100711.59;5049797;28;45346;-79
2023/07/01 06:08:30;;;;;;;;;0.00;0.00;;;;;19.50;100.00;100725.69;5048224;28;46453;-79
2023/07/01 06:10:55;;;;;;;;;0.00;0.00;;;;;19.50;100.00;100725.69;5021090;28;45780;-79
2023/07/01 06:13:20;;;;;;;;;1.00;1.00;;;;;19.66;100.00;100739.50;5033921;28;45401;-78
2023/07/01 06:15:46;;;;;;;;;0.00;0.00;;;;;19.63;100.00;100723.66;5024512;28;45457;-78
2023/07/01 06:18:11;;;;;;;;;1.00;0.67;;;;;19.68;100.00;100718.72;5036700;28;46612;-79
2023/07/01 06:20:36;;;;;;;;;0.00;0.00;;;;;19.83;100.00;100725.44;5037847;28;50354;-79
2023/07/01 06:23:02;;;;;;;;;0.00;0.00;;;;;19.88;100.00;100728.59;5059868;28;45545;-79
2023/07/01 06:25:27;;;;;;;;;0.67;0.67;;;;;19.99;100.00;100733.03;5039731;28;45296;-79
2023/07/01 06:27:53;;;;;;;;;0.00;0.00;;;;;19.98;100.00;100725.94;5019822;28;45448;-79
2023/07/01 06:30:18;;;;;;;;;0.67;0.00;;;;;19.76;100.00;100700.97;5036398;28;45355;-79
2023/07/01 06:32:44;;;;;;;;;0.00;0.00;;;;;19.98;100.00;100712.53;5020234;28;45383;-79
2023/07/01 06:35:09;;;;;;;;;0.00;0.00;;;;;20.09;100.00;100740.13;5037185;28;45391;-79
2023/07/01 06:37:34;;;;;;;;;0.00;0.00;;;;;20.10;100.00;100720.34;5020514;28;46284;-79
2023/07/01 06:40:00;;;;;;;;;0.00;0.00;;;;;20.16;100.00;100713.56;5038544;28;45383;-79
2023/07/01 06:42:25;;;;;;;;;0.00;0.00;;;;;20.27;100.00;100730.50;5043818;28;45379;-78
2023/07/01 06:44:50;;;;;;;;;0.00;0.00;;;;;20.29;100.00;100716.91;5034942;28;45555;-79
2023/07/01 06:47:16;;;;;;;;;0.00;0.00;;;;;20.30;100.00;100712.41;5052008;28;45315;-79
2023/07/01 06:49:41;;;;;;;;;0.00;0.00;;;;;20.43;100.00;100721.91;5032422;28;45403;-79
2023/07/01 06:52:07;;;;;;;;;0.00;0.00;;;;;20.35;100.00;100710.16;5040947;28;45258;-79
2023/07/01 06:54:32;;;;;;;;;0.00;0.00;;;;;20.33;100.00;100691.47;5037778;28;45449;-79
2023/07/01 06:56:57;;;;;;;;;0.00;0.00;;;;;20.44;100.00;100709.34;5019511;28;47250;-79
2023/07/01 06:59:23;;;;;;;;;0.00;0.00;;;;;20.43;100.00;100721.06;5042906;28;45297;-80
2023/07/01 07:01:48;;;;;;;;;0.00;0.00;;;;;20.51;100.00;100723.91;5040661;28;45637;-79
2023/07/01 07:04:13;;;;;;;;;0.00;0.00;;;;;20.55;100.00;100723.50;5039011;28;45528;-80
2023/07/01 07:06:39;;;;;;;;;1.00;1.00;;;;;20.52;100.00;100713.03;5042933;28;46049;-80
2023/07/01 07:09:05;;;;;;;;;0.00;0.00;;;;;20.52;100.00;100714.84;5024397;28;45259;-80
2023/07/01 07:11:31;;;;;;;;;0.00;0.00;;;;;20.56;100.00;100735.09;5045074;28;45693;-80
2023/07/01 07:13:56;;;;;;;;;1.00;0.00;;;;;20.56;100.00;100724.34;5020473;28;45590;-80
2023/07/01 07:16:21;;;;;;;;;0.00;0.00;;;;;20.61;100.00;100728.34;5038240;28;45564;-80
2023/07/01 07:18:47;;;;;;;;;0.00;0.00;;;;;20.59;100.00;100714.16;5023337;28;45336;-79
2023/07/01 07:21:13;;;;;;;;;1.33;1.00;;;;;20.61;100.00;100716.72;5020255;28;45365;-80
2023/07/01 07:23:38;;;;;;;;;0.00;0.00;;;;;20.65;100.00;100720.81;5041168;28;45794;-79
2023/07/01 07:26:03;;;;;;;;;0.67;0.67;;;;;20.69;100.00;100724.94;5039759;28;45516;-79
2023/07/01 07:28:29;;;;;;;;;0.00;0.00;;;;;20.20;100.00;100635.31;5023412;28;45408;-79
2023/07/01 07:30:54;;;;;;;;;1.00;1.00;;;;;20.68;100.00;100702.59;5031435;28;45776;-79
2023/07/01 07:33:20;;;;;;;;;0.67;0.67;;;;;20.80;100.00;100722.13;5023750;28;45774;-79
2023/07/01 07:35:45;;;;;;;;;2.00;0.33;;;;;20.84;100.00;100728.94;5038874;28;46740;-80
2023/07/01 07:38:31;;;;;;;;;1.00;0.00;;;;;20.87;100.00;100725.97;5022380;28;46152;-80
2023/07/01 07:40:56;;;;;;;;;1.00;1.00;;;;;20.71;100.00;100704.16;5021724;28;45263;-80
2023/07/01 07:43:21;;;;;;;;;1.00;1.00;;;;;20.88;100.00;100719.59;5018895;28;45566;-79
2023/07/01 07:45:49;;;;;;;;;1.00;1.00;;;;;21.10;100.00;100724.75;5011205;28;46746;-80
2023/07/01 07:48:15;;;;;;;;;0.00;0.00;;;;;21.01;100.00;100698.66;5003670;28;45320;-79
2023/07/01 07:50:40;;;;;;;;;0.00;0.00;;;;;20.90;100.00;100679.97;5002682;28;45360;-79
2023/07/01 07:53:06;;;;;;;;;1.00;0.00;;;;;21.18;100.00;100707.88;5023772;28;45536;-79
2023/07/01 07:55:33;;;;;;;;;0.00;0.00;;;;;21.20;100.00;100695.97;5019822;28;45280;-80
2023/07/01 07:58:00;;;;;;;;;0.00;0.00;;;;;21.19;100.00;100677.31;5020652;28;45553;-80
2023/07/01 08:00:26;;;;;;;;;0.33;0.33;;;;;21.29;100.00;100676.31;5018597;28;45313;-79
2023/07/01 08:02:51;;;;;;;;;0.00;0.00;;;;;21.49;100.00;100709.41;5002845;28;45575;-80
2023/07/01 08:05:17;;;;;;;;;1.00;1.00;;;;;21.40;100.00;100704.88;5016168;28;46105;-79
2023/07/01 08:07:45;;;;;;;;;0.00;0.00;;;;;21.27;100.00;100663.97;5022116;28;45499;-80
2023/07/01 08:10:11;;;;;;;;;0.00;0.00;;;;;21.29;100.00;100653.94;5008278;28;45343;-80
2023/07/01 08:12:37;;;;;;;;;0.67;0.33;;;;;21.24;100.00;100643.59;5012334;28;45385;-79
2023/07/01 08:15:03;;;;;;;;;2.00;1.00;;;;;21.36;100.00;100664.97;5011791;28;46496;-79
2023/07/01 08:17:28;;;;;;;;;1.33;1.33;;;;;21.27;100.00;100659.44;5020181;28;45460;-80
2023/07/01 08:19:54;;;;;;;;;0.00;0.00;;;;;21.49;100.00;100744.41;5002662;28;45745;-79
2023/07/01 08:22:19;;;;;;;;;5.00;3.00;;;;;20.95;100.00;100704.59;5017702;28;45643;-79
2023/07/01 08:25:05;;;;;;;;;;;;;;;;;;;;;
2023/07/01 08:27:47;;;;;;;;;1.00;1.00;;;;;20.25;100.00;100672.50;5010808;28;74072;-80
2023/07/01 08:30:22;;;;;;;;;2.00;1.00;;;;;20.06;100.00;100659.84;4997530;28;45514;-80
2023/07/01 08:32:49;;;;;;;;;1.67;1.00;;;;;20.15;100.00;100693.97;5002368;28;45512;-80
2023/07/01 08:35:16;;;;;;;;;1.00;1.00;;;;;19.94;100.00;100700.34;5005306;28;47009;-80
2023/07/01 08:37:56;;;;;;;;;;;;;;;;;;;;;
2023/07/01 08:40:25;;;;;;;;;0.00;0.00;;;;;20.08;100.00;100700.84;5007870;28;68657;-82
2023/07/01 08:42:54;;;;;;;;;0.00;0.00;;;;;19.80;100.00;100639.00;5017827;28;45492;-82
2023/07/01 08:45:25;;;;;;;;;0.00;0.00;;;;;20.17;100.00;100675.88;5009849;28;45700;-81
2023/07/01 08:47:57;;;;;;;;;0.00;0.00;;;;;20.49;100.00;100697.19;5018722;28;45446;-81
2023/07/01 08:50:25;;;;;;;;;0.00;0.00;;;;;20.24;100.00;100657.38;5006587;28;45428;-81
2023/07/01 08:53:18;;;;;;;;;;;;;;;;;;;;;
2023/07/01 08:55:45;;;;;;;;;1.00;1.00;;;;;20.44;100.00;100701.28;5010552;28;73736;-83
2023/07/01 08:58:13;;;;;;;;;0.00;0.00;;;;;20.58;100.00;100663.28;5018115;28;45472;-82
2023/07/01 09:00:39;;;;;;;;;0.00;0.00;;;;;20.77;100.00;100661.44;5011115;28;45247;-82
2023/07/01 09:03:06;;;;;;;;;0.00;0.00;;;;;21.21;100.00;100673.47;4999399;28;45572;-80
2023/07/01 09:05:51;;;;;;;;;0.00;0.00;;;;;21.62;100.00;100709.09;5014882;28;45578;-82
2023/07/01 09:08:17;;;;;;;;;0.00;0.00;;;;;21.68;100.00;100674.38;4991063;28;45445;-81
2023/07/01 09:10:46;;;;;;;;;0.00;0.00;;;;;21.88;97.16;100671.59;5000043;28;45586;-81
2023/07/01 09:13:22;;;;;;;;;1.00;1.00;;;;;22.03;97.71;100678.22;5012825;28;45531;-81
2023/07/01 09:15:51;;;;;;;;;0.33;0.00;;;;;22.03;91.94;100659.38;5021923;28;48006;-81
2023/07/01 09:18:30;;;;;;;;;2.00;0.00;;;;;22.47;92.84;100725.09;5007046;28;45465;-81
2023/07/01 09:20:57;;;;;;;;;0.00;0.00;;;;;22.19;92.42;100656.88;5005164;28;45497;-80
2023/07/01 09:23:31;;;;;;;;;0.00;0.00;;;;;22.72;94.51;100717.16;5006426;28;45665;-81
2023/07/01 09:26:14;;;;;;;;;0.00;0.00;;;;;22.71;93.36;100714.59;5014828;28;45418;-81
2023/07/01 09:28:51;;;;;;;;;0.00;0.00;;;;;22.66;86.47;100750.13;5005656;28;45600;-80
2023/07/01 09:31:29;;;;;;;;;1.00;1.00;;;;;22.21;86.82;100733.88;5016234;28;45350;-81
2023/07/01 09:34:02;;;;;;;;;0.67;0.00;;;;;21.97;88.24;100728.16;5012602;28;45422;-80
2023/07/01 09:36:40;;;;;;;;;0.00;0.00;;;;;21.35;94.44;100642.59;5013067;28;45445;-80
2023/07/01 09:39:14;;;;;;;;;0.00;0.00;;;;;21.77;89.33;100730.03;5018935;28;45361;-80
2023/07/01 09:41:40;;;;;;;;;1.00;0.00;;;;;21.80;86.71;100762.03;4996613;28;45536;-79
2023/07/01 09:44:18;;;;;;;;;0.00;0.00;;;;;21.85;85.70;100732.00;5015458;28;45341;-79
2023/07/01 09:46:46;;;;;;;;;0.33;0.00;;;;;21.93;86.09;100737.53;5000150;28;47334;-78
2023/07/01 09:49:28;;;;;;;;;0.00;0.00;;;;;21.71;86.10;100689.38;5018242;28;45382;-79
2023/07/01 09:51:54;;;;;;;;;1.00;0.00;;;;;21.89;86.82;100679.56;4999789;28;45488;-79
2023/07/01 09:54:29;;;;;;;;;0.00;0.00;;;;;22.11;89.71;100637.94;5020640;28;45328;-78
2023/07/01 09:56:56;;;;;;;;;1.00;0.00;;;;;22.67;82.23;100651.22;5019232;28;45579;-79
2023/07/01 09:59:22;;;;;;;;;0.00;0.00;;;;;23.22;86.00;100713.94;5001201;28;45314;-79
2023/07/01 10:01:50;;;;;;;;;0.00;0.00;;;;;23.03;80.05;100679.03;5000890;28;45496;-79
2023/07/01 10:07:07;;;;;;;;;0.00;0.00;;;;;23.40;82.78;100712.09;5002095;28;45471;-79
2023/07/01 10:09:51;;;;;;;;;4.33;4.00;;;;;22.86;78.09;100620.56;5000854;28;45351;-78
2023/07/01 10:12:43;;;;;;;;;0.00;0.00;;;;;22.81;77.50;100632.66;5015817;28;45401;-79
2023/07/01 10:15:13;;;;;;;;;0.67;0.67;;;;;23.10;75.62;100683.63;5002703;28;45824;-78
2023/07/01 10:17:55;;;;;;;;;0.00;0.00;;;;;22.79;74.14;100636.50;5022450;28;46372;-79
2023/07/01 10:20:30;;;;;;;;;0.00;0.00;;;;;23.38;73.00;100734.81;5033053;28;45447;-79
2023/07/01 10:22:57;;;;;;;;;0.00;0.00;;;;;23.41;75.04;100732.69;5003507;28;45389;-80
2023/07/01 10:25:36;;;;;;;;;1.00;1.00;;;;;23.14;74.74;100705.75;5001103;28;45514;-79
2023/07/01 10:28:27;;;;;;;;;0.00;0.00;;;;;23.01;71.91;100679.19;5018483;28;45537;-78
2023/07/01 10:30:55;;;;;;;;;0.67;0.67;;;;;23.50;74.44;100736.28;5003328;28;45229;-79
2023/07/01 10:33:39;;;;;;;;;5.00;5.00;;;;;23.72;72.51;100741.22;5014913;28;45341;-79
2023/07/01 10:36:18;;;;;;;;;2.00;1.33;;;;;23.46;69.09;100681.75;5017390;28;45282;-79
2023/07/01 10:38:44;;;;;;;;;1.00;0.00;;;;;23.44;70.84;100670.28;5020310;28;46853;-79
2023/07/01 10:41:09;;;;;;;;;0.67;0.67;;;;;23.41;69.34;100651.72;5031417;28;45548;-78
2023/07/01 10:43:39;;;;;;;;;5.00;5.00;;;;;23.94;69.12;100715.50;5014510;28;45461;-78
2023/07/01 10:46:22;;;;;;;;;1.00;1.00;;;;;23.83;68.97;100689.59;5020296;28;45238;-78
2023/07/01 10:49:13;;;;;;;;;0.00;0.00;;;;;23.79;68.39;100659.38;5019756;28;45495;-78
2023/07/01 10:51:45;;;;;;;;;0.00;0.00;;;;;24.27;67.82;100704.75;5033810;28;45397;-78
2023/07/01 10:54:28;;;;;;;;;1.00;1.00;;;;;24.34;69.05;100694.94;5023777;28;45457;-78
2023/07/01 10:57:14;;;;;;;;;0.67;0.67;;;;;24.45;67.71;100718.13;5036143;28;45418;-78
2023/07/01 10:59:42;;;;;;;;;1.00;1.00;;;;;24.34;67.52;100691.41;5049363;28;46226;-78
2023/07/01 11:02:09;;;;;;;;;4.00;1.00;;;;;24.22;67.31;100639.50;5029406;28;45488;-78
2023/07/01 11:04:56;;;;;;;;;0.00;0.00;;;;;24.69;65.53;100704.69;5017842;28;45457;-78
2023/07/01 11:07:26;;;;;;;;;6.00;5.00;;;;;24.91;64.63;100681.59;5038091;28;45284;-78
2023/07/01 11:09:55;;;;;;;;;0.00;0.00;;;;;24.60;66.16;100637.22;5037357;28;46888;-77
2023/07/01 11:12:23;;;;;;;;;1.00;1.00;;;;;24.53;62.28;100647.03;5030800;28;45507;-78
2023/07/01 11:14:52;;;;;;;;;1.00;1.00;;;;;24.08;63.24;100613.09;5017289;28;45492;-78
2023/07/01 11:17:20;;;;;;;;;0.00;0.00;;;;;24.32;64.20;100710.47;5031371;28;45630;-78
2023/07/01 11:19:54;;;;;;;;;0.00;0.00;;;;;23.60;65.03;100638.00;5019089;28;48183;-78
2023/07/01 11:22:25;;;;;;;;;0.33;0.33;;;;;23.46;66.08;100630.47;5007100;28;45476;-78
2023/07/01 11:24:51;;;;;;;;;0.00;0.00;;;;;23.82;66.49;100717.66;5038434;28;45409;-78
2023/07/01 11:27:21;;;;;;;;;0.00;0.00;;;;;23.62;63.98;100673.81;5037116;28;45586;-78
2023/07/01 11:29:56;;;;;;;;;0.00;0.00;;;;;23.84;65.24;100696.72;5018297;28;47898;-78
2023/07/01 11:32:23;;;;;;;;;0.00;0.00;;;;;23.70;63.85;100665.72;5031399;28;45433;-78